Current Conditions

Updated: 20-Jan-2018 6:58 PM  
Summary / Temperature Wind Rain






Feels like: 41°F

1-hour difference
3.1°F 3.1°F colder than last hour.

24-hour difference
7.2°F7.2°F colder than yesterday at this time.

  Today Yesterday
High: 51.1°F
2:54 PM
53.1°F
2:34 PM
Low: 35.6°F
4:20 AM
40.2°F
11:58 PM
Calm SE
0.0
Gust:  0.0 mph
0 Beaufort - Calm

Today: 9.2 - 2:05 AM
Month: 11.5 mph - Jan 10
Rain Today: 0.00 in
Current Rate (/hr): 0.000 in
Max Rate (/hr):
Rain Yesterday: 0.17 in
Storm Rain: 0.00 in
This Month: 0.98 in
Season Total: 1.72 in
Last Rain Event: Today
Humidity / Barometer Sun / Moon
Humidity: 90 Increased 6.0% in the last hour.
Dew Point: 38.1°F Decreased 1.3°F in the last hour.
Barometer: 30.232 inHg  
Baro Trend: Steady
Sunrise: 7:04 AM
Sunset: 5:10 PM
Moonrise: 9:51 AM
Moonset: 8:42 PM
Sky Conditions UV Index
Summary: Clear
Visibility: 10 miles
Clouds: None
KVIS - 5:56 PM PST
Current: 0.0  None 
Saturday: 1.8  Low 
Sunday: 2.0  Low 
Air Quality Fire Danger
 Moderate 
Ozone 22 ppb
PM 2.5 17 μg/m3
6:50 PM PST
Current: 0  Low 

Local Alerts Local Forecast
Local NWS Alerts
Tonight

Mostly
Clear
Low 29
Sun

Partly
Cloudy
High 56
Sun night

Mostly
Cloudy
Low 38
Mon

Partly
Cloudy
High 59
Mon night

Partly
Cloudy
Low 37
Tue

Partly
Cloudy
High 59
Tue night

Partly
Cloudy
Low 40

Local Radar Local Satellite Neighborhood Cam Sky Cam
Local Radar Local Satellite Neighborhood Cam Sky Cam


Nearby Personal Stations

Weather Underground PWS KCAEXETE7     Weather Underground PWS KCAEXETE6     Weather Underground PWS KCAEXETE11

Nearby Airport Stations

KVIS - Visalia, California, USA
Distance from station: W 14mi, 23km
Updated: Sat, 20-Jan-2018 5:56pm PST
Clear
Clear
 Wind from E
Wind: E 5 mph , 7 km/h
Temperature: 46°F , 8°C
Wind Chill: 44°F , 7°C
Dew Point: 39°F , 4°C
Humidity: 76%
Barometer: 30.22 inHg , 1023.4 hPa
Clouds: Clear
Visibility: 10 miles , 16 km
2018/01/21 01:56 KVIS 210156Z AUTO 10004KT 10SM CLR 08/04 A3022 RMK AO2 SLP244 T00780039
KPTV - Porterville, California, USA
Distance from station: SSE 19mi, 31km
Updated: Sat, 20-Jan-2018 5:56pm PST
Clear
Clear
 Wind from E
Wind: E 5 mph , 7 km/h
Temperature: 43°F , 6°C
Wind Chill: 40°F , 4°C
Dew Point: 37°F , 3°C
Humidity: 81%
Barometer: 30.22 inHg , 1023.4 hPa
Clouds: Clear
Visibility: 10 miles , 16 km
2018/01/21 01:56 KPTV 210156Z AUTO 10004KT 10SM CLR 06/03 A3022 RMK AO2 SLP249 T00610033

Metar display script from Saratoga-Weather.org



Visitor Map